Time;durP1;ratioP1;P1;durP2;ratioP2;P2;SDS_P1;SDS_P2;PMS_P1;PMS_P2;Temp;Humidity;BMP_temperature;BMP_pressure;BME280_temperature;BME280_humidity;BME280_pressure;Samples;Min_cycle;Max_cycle;Signal;HPM_P1;HPM_P2
2021/09/20 00:00:17;;;;;;;5.00;4.50;;;22.20;99.90;;;22.31;52.35;101309.66;5026420;27;98577;-47
2021/09/20 00:02:44;;;;;;;5.20;4.80;;;22.30;99.90;;;22.30;52.26;101313.34;5026921;27;97953;-45
2021/09/20 00:05:11;;;;;;;4.70;4.40;;;22.20;99.90;;;22.31;52.23;101315.91;5025124;27;99051;-45
2021/09/20 00:07:39;;;;;;;5.20;4.80;;;22.20;99.90;;;22.31;52.10;101309.66;5025869;27;97772;-46
2021/09/20 00:10:08;;;;;;;5.20;4.80;;;22.20;99.90;;;22.31;52.12;101315.03;5021021;27;98592;-43
2021/09/20 00:12:35;;;;;;;5.03;4.63;;;22.20;99.90;;;22.27;52.31;101314.38;5024708;27;99529;-44
2021/09/20 00:15:02;;;;;;;5.70;5.13;;;22.30;99.90;;;22.30;52.28;101313.34;5021417;27;102204;-44
2021/09/20 00:17:28;;;;;;;6.93;5.17;;;22.30;99.90;;;22.31;52.27;101312.34;5031642;27;97311;-46
2021/09/20 00:19:53;;;;;;;5.83;5.33;;;22.30;99.90;;;22.29;52.24;101319.69;5000837;27;101713;-48
2021/09/20 00:22:19;;;;;;;5.80;5.20;;;22.30;99.90;;;22.30;52.24;101307.97;5028025;27;99168;-48
2021/09/20 00:24:45;;;;;;;5.57;5.07;;;22.30;99.90;;;22.30;52.33;101308.81;5032117;27;99797;-45
2021/09/20 00:27:12;;;;;;;5.23;4.83;;;22.30;99.90;;;22.30;52.23;101305.28;5026114;27;97826;-43
2021/09/20 00:29:38;;;;;;;5.07;4.67;;;22.30;99.90;;;22.29;52.04;101317.84;5024801;27;97606;-48
2021/09/20 00:32:05;;;;;;;5.10;4.70;;;22.30;99.90;;;22.30;52.18;101316.03;5020142;27;100382;-46
2021/09/20 00:34:31;;;;;;;5.67;5.20;;;22.30;99.90;;;22.32;51.82;101316.75;5029940;27;99302;-46
2021/09/20 00:36:57;;;;;;;5.80;5.30;;;22.30;99.90;;;22.32;52.17;101311.38;5022116;27;97036;-50
2021/09/20 00:39:22;;;;;;;5.97;5.47;;;22.30;99.90;;;22.32;51.87;101306.88;5027345;27;98862;-46
2021/09/20 00:41:48;;;;;;;5.30;4.90;;;22.30;99.90;;;22.32;51.81;101314.06;5027329;27;98632;-49
2021/09/20 00:44:15;;;;;;;5.57;5.07;;;22.30;99.90;;;22.30;51.85;101307.97;5021765;27;97923;-44
2021/09/20 00:46:41;;;;;;;5.60;5.20;;;22.30;99.90;;;22.29;52.06;101314.31;5025353;27;97420;-48
2021/09/20 00:49:07;;;;;;;5.70;5.30;;;22.30;99.90;;;22.27;52.21;101309.88;5024167;27;112649;-50
2021/09/20 00:51:32;;;;;;;5.83;5.43;;;22.30;99.90;;;22.29;52.21;101308.94;5042575;27;97990;-46
2021/09/20 00:53:59;;;;;;;5.80;5.30;;;22.30;99.90;;;22.30;52.21;101313.34;5024534;27;99402;-47
2021/09/20 00:56:26;;;;;;;5.83;5.40;;;22.30;99.90;;;22.31;52.33;101304.28;5027448;27;99341;-45
2021/09/20 00:58:53;;;;;;;6.20;5.60;;;22.20;99.90;;;22.30;52.13;101303.44;5016770;27;123771;-51
2021/09/20 01:01:19;;;;;;;5.70;5.30;;;22.30;99.90;;;22.29;52.06;101301.72;5027293;27;102294;-47
2021/09/20 01:03:45;;;;;;;5.80;5.40;;;22.20;99.90;;;22.27;51.88;101309.03;5025426;27;99291;-49
2021/09/20 01:06:11;;;;;;;5.97;5.47;;;22.20;99.90;;;22.24;51.89;101304.72;5019709;27;114838;-45
2021/09/20 01:08:36;;;;;;;5.83;5.37;;;22.20;99.90;;;22.24;52.07;101304.72;5035804;27;98891;-46
2021/09/20 01:11:02;;;;;;;6.17;5.70;;;22.20;99.90;;;22.26;51.93;101308.16;5014304;27;100720;-47
2021/09/20 01:13:28;;;;;;;7.03;6.50;;;22.20;99.90;;;22.25;52.05;101311.81;5017880;27;99075;-44
2021/09/20 01:15:54;;;;;;;6.07;5.57;;;22.20;99.90;;;22.24;51.90;101307.41;5024446;27;97083;-48
2021/09/20 01:18:21;;;;;;;6.30;5.80;;;22.20;99.90;;;22.24;51.86;101304.72;5042071;27;98407;-48
2021/09/20 01:20:47;;;;;;;5.73;5.33;;;22.20;99.90;;;22.23;52.05;101312.91;5028790;27;97119;-46
2021/09/20 01:23:13;;;;;;;5.90;5.50;;;22.20;99.90;;;22.21;52.23;101310.34;5020319;27;97675;-46
2021/09/20 01:25:42;;;;;;;6.50;6.00;;;22.20;99.90;;;22.24;52.19;101310.09;5011662;27;99357;-43
2021/09/20 01:28:08;;;;;;;6.17;5.67;;;22.20;99.90;;;22.24;52.08;101315.47;5022528;27;97241;-48
2021/09/20 01:30:34;;;;;;;6.13;5.63;;;22.20;99.90;;;22.21;52.14;101313.03;5043458;27;98519;-44
2021/09/20 01:33:00;;;;;;;6.30;5.80;;;22.20;99.90;;;22.21;52.10;101304.97;5016484;27;99410;-43
2021/09/20 01:35:27;;;;;;;6.50;5.90;;;22.20;99.90;;;22.21;52.08;101310.34;5024619;27;99008;-45
2021/09/20 01:37:53;;;;;;;6.17;5.67;;;22.20;99.90;;;22.21;51.97;101298.75;5022884;27;98775;-47
2021/09/20 01:40:20;;;;;;;6.10;5.60;;;22.20;99.90;;;22.25;51.81;101305.59;5022781;27;98947;-49
2021/09/20 01:42:46;;;;;;;5.87;5.47;;;22.20;99.90;;;22.25;51.85;101310.97;5028065;27;97844;-44
2021/09/20 01:45:14;;;;;;;6.80;6.20;;;22.20;99.90;;;22.25;51.59;101301.06;5019903;27;98299;-48
2021/09/20 01:47:40;;;;;;;6.20;5.70;;;22.20;99.90;;;22.26;51.63;101308.16;5027961;27;98988;-46
2021/09/20 01:50:10;;;;;;;5.97;5.47;;;22.20;99.90;;;22.26;51.73;101302.78;5019501;27;100247;-46
2021/09/20 01:52:37;;;;;;;6.20;5.70;;;22.20;99.90;;;22.24;51.81;101304.72;5032105;27;98038;-46
2021/09/20 01:55:05;;;;;;;6.00;5.50;;;22.10;99.90;;;22.21;51.84;101304.97;5042592;27;97091;-43
2021/09/20 01:57:33;;;;;;;5.70;5.30;;;22.10;99.90;;;22.20;51.94;101305.94;5043196;27;97757;-43
2021/09/20 01:59:58;;;;;;;6.27;5.77;;;22.10;99.90;;;22.18;52.02;101305.19;5042689;27;98248;-46
2021/09/20 02:02:24;;;;;;;6.60;6.10;;;22.10;99.90;;;22.14;52.18;101303.72;5042256;27;96961;-46
2021/09/20 02:04:51;;;;;;;6.03;5.53;;;22.00;99.90;;;22.07;52.44;101304.28;5047268;27;97957;-53
2021/09/20 02:07:17;;;;;;;5.63;5.23;;;21.90;99.90;;;21.96;52.61;101307.72;5059578;27;97776;-47
2021/09/20 02:09:43;;;;;;;6.13;5.63;;;21.70;99.90;;;21.85;53.06;101310.34;5047305;27;99640;-42
2021/09/20 02:12:10;;;;;;;5.70;5.20;;;21.50;99.90;;;21.76;53.36;101308.31;5040463;27;97379;-44
2021/09/20 02:14:36;;;;;;;6.33;5.83;;;21.30;99.90;;;21.68;53.61;101311.53;5045791;27;98822;-45
2021/09/20 02:17:03;;;;;;;6.13;5.63;;;21.30;99.90;;;21.63;53.81;101317.25;5040142;27;99244;-46
2021/09/20 02:19:28;;;;;;;5.90;5.40;;;21.20;99.90;;;21.59;54.01;101318.44;5049635;27;97954;-44
2021/09/20 02:21:54;;;;;;;6.23;5.73;;;21.20;99.90;;;21.58;53.94;101314.03;5021096;27;96990;-49
2021/09/20 02:24:20;;;;;;;5.67;5.27;;;21.20;99.90;;;21.59;53.94;101321.13;5047897;27;97929;-44
2021/09/20 02:26:46;;;;;;;5.97;5.47;;;21.30;99.90;;;21.56;54.06;101313.28;5052091;27;101113;-43
2021/09/20 02:29:12;;;;;;;6.60;6.00;;;21.30;99.90;;;21.50;54.47;101316.41;5044417;27;97526;-45
2021/09/20 02:31:38;;;;;;;6.20;5.60;;;21.10;99.90;;;21.45;54.51;101317.69;5053133;27;105934;-44
2021/09/20 02:34:05;;;;;;;6.60;6.10;;;21.00;99.90;;;21.36;54.67;101312.00;5042366;27;98200;-42
2021/09/20 02:36:31;;;;;;;6.53;6.03;;;20.90;99.90;;;21.28;54.69;101314.38;5066987;27;99832;-43
2021/09/20 02:38:56;;;;;;;6.33;5.83;;;20.80;99.90;;;21.17;55.04;101316.06;5051441;27;108760;-43
2021/09/20 02:41:23;;;;;;;6.23;5.73;;;20.60;99.90;;;21.12;55.41;101318.19;5049716;27;103645;-44
2021/09/20 02:43:49;;;;;;;6.90;6.40;;;20.50;99.90;;;21.06;55.42;101320.34;5046941;27;96997;-45
2021/09/20 02:46:15;;;;;;;6.80;6.30;;;20.50;99.90;;;21.02;55.83;101317.97;5046606;27;96811;-46
2021/09/20 02:48:42;;;;;;;6.07;5.57;;;20.40;99.90;;;20.98;55.91;101327.22;5051877;27;99655;-43
2021/09/20 02:51:08;;;;;;;6.10;5.60;;;20.40;99.90;;;20.99;55.98;101323.56;5027055;27;96908;-43
2021/09/20 02:53:34;;;;;;;5.67;5.23;;;20.50;99.90;;;21.01;56.02;101321.63;5051160;27;96978;-43
2021/09/20 02:56:00;;;;;;;5.97;5.47;;;20.60;99.90;;;21.02;55.86;101323.34;5028009;27;98879;-48
2021/09/20 02:58:26;;;;;;;8.00;7.20;;;20.60;99.90;;;21.00;55.59;101319.91;5049963;27;97209;-43
2021/09/20 03:00:52;;;;;;;9.67;8.67;;;20.60;99.90;;;20.89;55.49;101322.47;5046042;27;107179;-50
2021/09/20 03:03:18;;;;;;;6.80;6.20;;;20.30;99.80;;;20.76;56.49;101317.06;5032268;27;99862;-43
2021/09/20 03:05:43;;;;;;;6.93;6.27;;;20.10;99.90;;;20.70;56.77;101322.88;5046790;27;98289;-43
2021/09/20 03:08:09;;;;;;;6.20;5.70;;;20.00;99.90;;;20.68;56.77;101330.97;5048130;27;97729;-43
2021/09/20 03:10:36;;;;;;;6.43;5.93;;;20.00;99.90;;;20.68;56.93;101330.13;5044402;27;97919;-44
2021/09/20 03:13:02;;;;;;;6.80;6.10;;;20.10;99.90;;;20.70;56.91;101329.09;5042187;27;96796;-48
2021/09/20 03:15:28;;;;;;;6.63;6.03;;;20.20;99.90;;;20.71;56.78;101321.91;5027667;27;100011;-46
2021/09/20 03:17:54;;;;;;;9.00;8.10;;;20.20;99.90;;;20.68;56.76;101322.94;5039085;27;98870;-45
2021/09/20 03:20:20;;;;;;;8.70;7.90;;;20.10;99.90;;;20.59;57.03;101326.25;5048700;27;97268;-45
2021/09/20 03:22:46;;;;;;;8.27;7.57;;;19.90;99.90;;;20.54;57.18;101327.50;5042964;27;103757;-43
2021/09/20 03:25:14;;;;;;;6.33;5.83;;;19.90;99.90;;;20.48;57.69;101323.44;5041213;27;97145;-46
2021/09/20 03:27:40;;;;;;;7.57;6.87;;;19.80;99.90;;;20.48;57.60;101332.31;5044636;27;97395;-45
2021/09/20 03:30:09;;;;;;;6.57;6.07;;;19.80;99.90;;;20.48;57.82;101334.16;5042857;27;103017;-43
2021/09/20 03:32:36;;;;;;;7.47;6.80;;;19.80;99.90;;;20.46;57.64;101334.25;5042813;27;97049;-43
2021/09/20 03:35:03;;;;;;;6.80;6.17;;;19.80;99.90;;;20.49;57.71;101336.72;5039825;27;100333;-46
2021/09/20 03:37:29;;;;;;;6.80;6.20;;;19.90;99.90;;;20.53;57.60;101336.50;5043951;27;98374;-46
2021/09/20 03:39:55;;;;;;;7.27;6.67;;;19.90;99.90;;;20.57;57.43;101348.78;5044898;27;96850;-44
2021/09/20 03:42:21;;;;;;;7.13;6.53;;;20.00;99.90;;;20.56;57.24;101339.00;5046759;27;97421;-47
2021/09/20 03:44:46;;;;;;;7.87;7.17;;;20.00;99.90;;;20.58;57.20;101347.81;5044717;27;98527;-43
2021/09/20 03:47:12;;;;;;;8.13;7.47;;;20.00;99.90;;;20.59;57.11;101346.84;5044174;27;104722;-43
2021/09/20 03:49:38;;;;;;;10.70;9.70;;;20.00;99.90;;;20.58;56.54;101345.13;5048538;27;97095;-43
2021/09/20 03:52:04;;;;;;;6.57;6.00;;;20.00;99.90;;;20.58;57.28;101350.47;5043704;27;97349;-42
2021/09/20 03:54:30;;;;;;;6.47;5.93;;;20.00;99.90;;;20.59;57.44;101347.69;5043980;27;100494;-45
2021/09/20 03:56:55;;;;;;;6.43;5.93;;;20.00;99.90;;;20.62;57.27;101352.00;5044330;27;97017;-44
2021/09/20 03:59:21;;;;;;;6.37;5.87;;;20.10;99.90;;;20.64;57.14;101348.25;5046755;27;105444;-43
2021/09/20 04:01:47;;;;;;;7.73;7.03;;;20.10;99.90;;;20.70;57.10;101355.03;5061700;27;97271;-45
2021/09/20 04:04:13;;;;;;;7.33;6.70;;;20.20;99.90;;;20.68;56.78;101352.44;5040720;27;96981;-43
2021/09/20 04:06:39;;;;;;;6.73;6.13;;;20.20;99.90;;;20.66;57.37;101356.19;5049659;27;97136;-45
2021/09/20 04:09:05;;;;;;;7.67;7.00;;;20.10;99.90;;;20.66;57.18;101353.50;5042381;27;96935;-43
2021/09/20 04:11:30;;;;;;;7.03;6.50;;;20.10;99.90;;;20.67;57.26;101355.22;5044370;27;96958;-43
2021/09/20 04:13:56;;;;;;;7.33;6.73;;;20.10;99.90;;;20.66;57.23;101343.63;5042983;27;100241;-43
2021/09/20 04:16:23;;;;;;;6.43;5.83;;;20.10;99.90;;;20.67;57.18;101360.56;5040922;27;98408;-45
2021/09/20 04:18:49;;;;;;;6.20;5.60;;;20.10;99.90;;;20.69;57.26;101358.69;5046782;27;97401;-45
2021/09/20 04:21:15;;;;;;;6.70;6.10;;;20.20;99.90;;;20.73;56.97;101360.19;5039653;27;97184;-44
2021/09/20 04:23:41;;;;;;;6.60;6.00;;;20.20;99.90;;;20.82;56.82;101364.91;5045171;27;100435;-43
2021/09/20 04:26:06;;;;;;;6.53;5.83;;;20.40;99.90;;;20.91;56.59;101366.97;5042027;27;97062;-48
2021/09/20 04:28:32;;;;;;;6.23;5.73;;;20.50;99.90;;;20.96;56.56;101367.50;5046228;27;98687;-48
2021/09/20 04:30:58;;;;;;;6.77;6.17;;;20.60;99.90;;;21.00;56.29;101362.81;5042534;27;97201;-45
2021/09/20 04:33:24;;;;;;;5.43;5.00;;;20.60;99.90;;;21.04;56.17;101365.19;5047075;27;100969;-46
2021/09/20 04:35:50;;;;;;;6.50;5.90;;;20.70;99.90;;;21.10;55.96;101375.47;5046929;27;110489;-46
2021/09/20 04:38:17;;;;;;;6.47;5.97;;;20.80;99.90;;;21.15;55.97;101377.00;5037483;27;97781;-44
2021/09/20 04:40:43;;;;;;;5.77;5.27;;;20.80;99.90;;;21.17;55.86;101380.44;5048956;27;97393;-45
2021/09/20 04:43:12;;;;;;;6.40;5.90;;;20.80;99.90;;;21.20;55.84;101374.84;5038024;27;97718;-43
2021/09/20 04:45:40;;;;;;;6.20;5.70;;;20.90;99.90;;;21.23;55.65;101375.50;5046410;27;97460;-44
2021/09/20 04:48:10;;;;;;;6.87;6.27;;;20.90;99.90;;;21.24;55.60;101381.72;5053759;27;97567;-47
2021/09/20 04:50:42;;;;;;;5.67;5.20;;;20.90;99.90;;;21.23;55.40;101380.00;5044880;27;97016;-45
2021/09/20 04:53:09;;;;;;;6.57;5.97;;;20.90;99.90;;;21.22;55.67;101376.47;5038702;27;98752;-48
2021/09/20 04:55:36;;;;;;;5.90;5.40;;;20.80;99.90;;;21.23;55.54;101388.06;5049782;27;96980;-44
2021/09/20 04:58:11;;;;;;;7.20;6.50;;;20.80;99.90;;;21.21;55.56;101385.47;5033143;27;102489;-46
2021/09/20 05:00:39;;;;;;;5.87;5.37;;;20.80;99.90;;;21.20;55.67;101394.50;5062581;27;97285;-44
2021/09/20 05:03:05;;;;;;;6.83;6.13;;;20.80;99.90;;;21.21;55.53;101396.22;5039529;27;99448;-46
2021/09/20 05:05:31;;;;;;;6.07;5.57;;;20.80;99.90;;;21.19;55.66;101399.97;5046554;27;99006;-46
2021/09/20 05:07:57;;;;;;;6.33;5.80;;;20.80;99.90;;;21.17;55.82;101393.84;5042316;27;97946;-43
2021/09/20 05:10:23;;;;;;;9.70;7.23;;;20.70;99.90;;;21.14;55.71;101392.25;5041284;27;97607;-45
2021/09/20 05:12:49;;;;;;;7.30;6.60;;;20.70;99.90;;;21.12;55.60;101404.03;5044123;27;97433;-42
2021/09/20 05:15:16;;;;;;;6.23;5.73;;;20.70;99.90;;;21.09;55.80;101405.09;5038568;27;97851;-48
2021/09/20 05:17:44;;;;;;;6.20;5.70;;;20.60;99.90;;;21.06;56.07;101400.81;5027790;27;96987;-44
2021/09/20 05:20:12;;;;;;;6.70;6.10;;;20.60;99.90;;;21.06;56.12;101405.31;5037184;27;97113;-43
2021/09/20 05:22:38;;;;;;;5.93;5.23;;;20.60;99.90;;;21.07;55.99;101407.88;5050316;27;100589;-44
2021/09/20 05:25:06;;;;;;;6.40;5.90;;;20.60;99.90;;;21.04;55.95;101410.78;5020993;27;97408;-48
2021/09/20 05:27:34;;;;;;;7.10;6.40;;;20.60;99.90;;;21.00;55.99;101417.31;5038532;27;97065;-43
2021/09/20 05:30:01;;;;;;;5.60;5.10;;;20.60;99.90;;;20.97;56.20;101409.47;5040678;27;97388;-43
2021/09/20 05:32:27;;;;;;;6.10;5.60;;;20.50;99.90;;;20.94;56.31;101419.53;5043810;27;100322;-49
2021/09/20 05:34:53;;;;;;;7.23;6.60;;;20.40;99.90;;;20.90;56.30;101415.34;5042140;27;97420;-50
2021/09/20 05:37:19;;;;;;;6.30;5.80;;;20.40;99.90;;;20.86;56.52;101420.06;5038207;27;97332;-46
2021/09/20 05:39:44;;;;;;;6.80;6.20;;;20.30;99.90;;;20.87;56.49;101419.09;5047172;27;98164;-44
2021/09/20 05:42:10;;;;;;;7.20;6.40;;;20.30;99.90;;;20.86;56.56;101421.88;5036912;27;99899;-43
2021/09/20 05:44:37;;;;;;;6.37;5.80;;;20.30;99.90;;;20.88;56.52;101423.50;5052899;27;99961;-44
2021/09/20 05:47:03;;;;;;;6.73;6.13;;;20.40;99.90;;;20.90;56.49;101416.22;5033003;27;97172;-45
2021/09/20 05:49:29;;;;;;;6.07;5.57;;;20.40;99.90;;;20.93;56.56;101416.00;5037423;27;97534;-45
2021/09/20 05:51:55;;;;;;;6.70;6.03;;;20.50;99.90;;;20.97;56.33;101409.47;5046980;27;97356;-44
2021/09/20 05:54:20;;;;;;;6.40;5.83;;;20.60;99.90;;;21.01;56.33;101413.69;5050419;27;97369;-43
2021/09/20 05:56:46;;;;;;;5.93;5.33;;;20.60;99.90;;;21.13;55.99;101416.50;5049307;27;97501;-45
2021/09/20 05:59:12;;;;;;;6.53;5.40;;;20.80;99.90;;;21.21;55.66;101417.69;5045735;27;97380;-46
2021/09/20 06:01:38;;;;;;;6.60;5.93;;;21.00;99.90;;;21.32;55.46;101425.03;5051771;27;98279;-48
2021/09/20 06:04:04;;;;;;;6.10;5.53;;;21.10;99.90;;;21.39;55.20;101423.63;5043918;27;102788;-46
2021/09/20 06:06:29;;;;;;;5.70;5.20;;;21.20;99.90;;;21.46;54.81;101432.13;5048023;27;101403;-43
2021/09/20 06:08:56;;;;;;;6.30;5.80;;;21.30;99.90;;;21.51;54.79;101424.63;5039898;27;97409;-45
2021/09/20 06:11:21;;;;;;;5.93;5.43;;;21.30;99.90;;;21.55;54.73;101426.97;5049630;27;97079;-43
2021/09/20 06:13:47;;;;;;;6.10;5.60;;;21.40;99.90;;;21.61;54.56;101429.25;5047860;27;99049;-43
2021/09/20 06:16:14;;;;;;;6.37;5.87;;;21.50;99.90;;;21.67;54.33;101439.53;5050681;27;97323;-44
2021/09/20 06:18:41;;;;;;;5.60;5.10;;;21.60;99.90;;;21.72;54.24;101424.97;5062338;27;97088;-47
2021/09/20 06:21:07;;;;;;;6.17;5.57;;;21.70;99.90;;;21.79;54.04;101436.97;5031277;27;99964;-43
2021/09/20 06:23:33;;;;;;;6.27;5.67;;;21.80;99.90;;;21.85;53.61;101432.03;5036865;27;97158;-43
2021/09/20 06:25:58;;;;;;;6.03;5.53;;;21.80;99.90;;;21.88;53.59;101439.03;5029374;27;97624;-45
2021/09/20 06:28:24;;;;;;;5.60;5.10;;;21.90;99.90;;;21.90;53.43;101434.41;5051038;27;97820;-48
2021/09/20 06:30:50;;;;;;;5.63;5.17;;;21.90;99.90;;;21.92;53.35;101435.13;5027902;27;97896;-46
2021/09/20 06:33:16;;;;;;;6.13;5.60;;;21.90;99.90;;;21.92;53.40;101435.13;5022342;27;99188;-44
2021/09/20 06:35:43;;;;;;;5.63;5.13;;;22.00;99.90;;;21.99;53.02;101444.50;5027262;27;99510;-45
2021/09/20 06:38:09;;;;;;;5.37;4.90;;;22.00;99.90;;;22.02;52.94;101436.22;5024600;27;98991;-48
2021/09/20 06:40:35;;;;;;;5.30;4.90;;;22.00;99.90;;;22.04;52.99;101447.72;5009525;27;98860;-46
2021/09/20 06:43:01;;;;;;;5.07;4.67;;;22.00;99.90;;;22.07;52.96;101442.13;5041232;27;101744;-50
2021/09/20 06:45:27;;;;;;;5.50;5.00;;;22.00;99.90;;;22.07;52.80;101441.28;5026776;27;98261;-45
2021/09/20 06:47:53;;;;;;;5.20;4.80;;;22.00;99.90;;;22.09;52.77;101460.84;5023871;27;102946;-50
2021/09/20 06:50:19;;;;;;;5.30;4.80;;;22.00;99.90;;;22.09;52.68;101445.56;5025278;27;102610;-44
2021/09/20 06:52:45;;;;;;;5.90;5.40;;;22.00;99.90;;;22.10;52.66;101457.19;5044986;27;97894;-49
2021/09/20 06:55:13;;;;;;;5.90;5.00;;;22.10;99.90;;;22.10;52.63;101452.66;5024680;27;99055;-47
2021/09/20 06:57:39;;;;;;;5.83;5.17;;;22.10;99.90;;;22.13;52.49;101451.56;5026541;27;99607;-46
2021/09/20 07:00:08;;;;;;;5.10;4.70;;;22.10;99.90;;;22.13;52.48;101451.56;5025207;27;98687;-45
2021/09/20 07:02:33;;;;;;;4.93;4.53;;;22.10;99.90;;;22.11;52.39;101451.69;5023853;27;99259;-45
2021/09/20 07:04:59;;;;;;;5.00;4.60;;;22.10;99.90;;;22.10;52.61;101454.50;5028811;27;98637;-48
2021/09/20 07:07:25;;;;;;;5.50;5.10;;;22.00;99.90;;;22.07;52.56;101460.94;5009028;27;97531;-48
2021/09/20 07:09:51;;;;;;;4.90;4.50;;;22.10;99.90;;;22.11;52.55;101454.38;5045068;27;97620;-43
2021/09/20 07:12:17;;;;;;;5.07;4.67;;;22.10;99.90;;;22.12;52.67;101455.22;5019473;27;101817;-50
2021/09/20 07:14:42;;;;;;;5.13;4.73;;;22.10;99.90;;;22.10;52.58;101468.78;5026059;27;97200;-49
2021/09/20 07:17:09;;;;;;;5.17;4.67;;;22.10;99.90;;;22.09;52.43;101467.06;5023708;27;99641;-49
2021/09/20 07:19:35;;;;;;;4.80;4.40;;;22.10;99.90;;;22.08;52.39;101469.88;5027931;27;97914;-46
2021/09/20 07:22:00;;;;;;;4.77;4.37;;;22.10;99.90;;;22.08;52.41;101470.72;5015718;27;99231;-48
2021/09/20 07:24:27;;;;;;;5.47;4.77;;;22.10;99.90;;;22.07;52.38;101476.19;5021609;27;97657;-48
2021/09/20 07:26:53;;;;;;;5.60;5.10;;;22.10;99.90;;;22.11;52.24;101481.25;5026575;27;98850;-53
2021/09/20 07:29:19;;;;;;;4.97;4.57;;;22.10;99.90;;;22.11;52.31;101478.56;5027843;27;106425;-48
2021/09/20 07:31:45;;;;;;;4.80;4.37;;;22.10;99.90;;;22.11;52.02;101486.63;5028056;27;99024;-43
2021/09/20 07:34:12;;;;;;;4.90;4.50;;;22.10;99.90;;;22.09;52.01;101488.56;5025637;27;97489;-46
2021/09/20 07:36:38;;;;;;;4.27;3.97;;;22.10;99.90;;;22.11;52.10;101492.00;5029346;27;99015;-45
2021/09/20 07:39:05;;;;;;;5.10;4.70;;;22.10;99.90;;;22.11;52.07;101486.63;5022539;27;100248;-46
2021/09/20 07:41:32;;;;;;;5.00;4.60;;;22.10;99.90;;;22.06;52.04;101491.47;5029335;27;97713;-50
2021/09/20 07:43:57;;;;;;;5.07;4.67;;;22.10;99.90;;;22.02;52.26;101487.25;5024150;27;97963;-51
2021/09/20 07:46:24;;;;;;;4.60;4.27;;;22.10;99.90;;;22.08;52.34;101486.84;5029657;27;97431;-48
2021/09/20 07:48:51;;;;;;;4.90;4.50;;;22.10;99.90;;;22.07;52.00;101490.50;5029527;27;99193;-48
2021/09/20 07:51:18;;;;;;;4.90;4.50;;;22.10;99.90;;;22.10;51.99;101495.66;5023854;27;101045;-48
2021/09/20 07:53:45;;;;;;;4.90;4.50;;;22.10;99.90;;;22.07;52.00;101490.50;5029214;27;99558;-44
2021/09/20 07:56:12;;;;;;;4.43;4.03;;;22.10;99.90;;;22.02;52.23;101503.38;5020365;27;96894;-46
2021/09/20 07:58:38;;;;;;;4.47;4.07;;;22.10;99.90;;;22.00;52.30;101499.94;5028662;27;101044;-46
2021/09/20 08:01:04;;;;;;;4.70;4.30;;;22.00;99.90;;;22.04;52.04;101501.44;5022020;27;97411;-46
2021/09/20 08:03:30;;;;;;;4.60;4.23;;;22.10;99.90;;;22.04;52.07;101506.81;5028988;27;98142;-47
2021/09/20 08:05:56;;;;;;;4.67;4.27;;;22.10;99.90;;;22.07;51.79;101512.00;5005825;27;97827;-49
2021/09/20 08:08:23;;;;;;;4.97;4.57;;;22.10;99.90;;;22.11;51.54;101513.47;5045627;27;99282;-45
2021/09/20 08:10:50;;;;;;;5.43;5.00;;;22.10;99.90;;;22.09;51.38;101504.69;5025515;27;97733;-49
2021/09/20 08:13:16;;;;;;;4.80;4.40;;;22.10;99.90;;;22.12;51.65;101503.59;5026388;27;97169;-44
2021/09/20 08:15:46;;;;;;;5.03;4.63;;;22.10;99.90;;;22.10;51.83;101506.38;5022543;27;97316;-48
2021/09/20 08:18:14;;;;;;;4.50;4.10;;;22.10;99.90;;;22.08;51.67;101511.03;5021542;27;97183;-50
2021/09/20 08:20:43;;;;;;;4.77;4.27;;;22.10;99.90;;;22.07;51.74;101512.00;5024349;27;96930;-45
2021/09/20 08:23:10;;;;;;;4.97;4.57;;;22.10;99.90;;;22.13;51.58;101516.06;5022402;27;98299;-44
2021/09/20 08:25:36;;;;;;;4.50;4.10;;;22.10;99.90;;;22.13;51.65;101516.94;5011286;27;98877;-44
2021/09/20 08:28:02;;;;;;;4.47;4.17;;;22.20;99.90;;;22.14;51.63;101518.66;5023138;27;100014;-43
2021/09/20 08:30:28;;;;;;;4.40;4.00;;;22.20;99.90;;;22.10;51.86;101517.13;5026000;27;97126;-47
2021/09/20 08:32:55;;;;;;;4.67;4.27;;;22.20;99.90;;;22.13;51.71;101527.69;5014476;27;99309;-46
2021/09/20 08:35:21;;;;;;;4.80;4.40;;;22.20;99.90;;;22.16;51.50;101526.63;5025723;27;98410;-46
2021/09/20 08:37:48;;;;;;;4.60;4.20;;;22.20;99.90;;;22.17;51.38;101525.66;5025171;27;98896;-47
2021/09/20 08:40:16;;;;;;;4.73;4.37;;;22.20;99.90;;;22.16;51.29;101526.63;5039701;27;97482;-47
2021/09/20 08:42:43;;;;;;;4.27;3.93;;;22.20;99.90;;;22.17;51.21;101521.13;5027167;27;98772;-48
2021/09/20 08:45:14;;;;;;;4.60;4.20;;;22.20;99.90;;;22.12;51.26;101528.63;5019370;27;98930;-45
2021/09/20 08:47:42;;;;;;;4.73;4.33;;;22.20;99.90;;;22.11;51.32;101532.28;5025430;27;98371;-45
2021/09/20 08:50:11;;;;;;;4.43;4.03;;;22.20;99.90;;;22.14;51.30;101523.19;5021311;27;97294;-46
2021/09/20 08:52:37;;;;;;;4.70;4.30;;;22.20;99.90;;;22.10;51.30;101529.72;5023228;27;97988;-48
2021/09/20 08:55:05;;;;;;;4.73;4.33;;;22.20;99.90;;;22.12;51.53;101534.00;5020448;27;98105;-48
2021/09/20 08:57:32;;;;;;;4.37;4.07;;;22.20;99.90;;;22.09;51.74;101530.69;5025956;27;99061;-44
2021/09/20 08:59:58;;;;;;;4.50;4.10;;;22.20;99.90;;;22.03;51.56;101531.94;5010518;27;98644;-46
2021/09/20 09:02:25;;;;;;;4.27;3.97;;;22.10;99.90;;;22.00;51.82;101531.31;5024999;27;97570;-45
2021/09/20 09:04:51;;;;;;;4.10;3.80;;;22.10;99.90;;;21.89;51.65;101534.75;5020686;27;98323;-44
2021/09/20 09:07:20;;;;;;;4.90;4.50;;;22.00;99.90;;;21.90;51.42;101531.94;5019294;27;100497;-45
2021/09/20 09:09:50;;;;;;;5.17;4.67;;;22.10;99.90;;;21.97;51.46;101538.59;5024238;27;99424;-49
2021/09/20 09:12:30;;;;;;;4.63;4.23;;;22.10;99.90;;;22.02;51.02;101542.81;5017022;27;99600;-47
2021/09/20 09:15:00;;;;;;;4.37;4.07;;;22.10;99.90;;;21.99;50.95;101541.19;5019587;27;99596;-43
2021/09/20 09:17:28;;;;;;;7.70;5.93;;;22.10;99.90;;;22.03;47.27;101542.69;5018853;27;100319;-43
2021/09/20 09:19:58;;;;;;;4.67;4.30;;;22.10;95.90;;;22.06;50.70;101542.50;5020941;27;99081;-46
2021/09/20 09:22:49;;;;;;;5.13;4.70;;;22.10;99.90;;;22.06;51.21;101547.03;5024177;27;98106;-49
2021/09/20 09:25:48;;;;;;;5.13;4.67;;;22.10;99.90;;;22.02;50.89;101546.34;5022279;27;98399;-49
2021/09/20 09:28:28;;;;;;;4.40;4.00;;;22.10;99.90;;;21.98;51.21;101550.19;5017959;27;100061;-49
2021/09/20 09:31:04;;;;;;;4.17;3.87;;;22.00;99.90;;;22.02;50.99;101550.88;5018562;27;99182;-43
2021/09/20 09:33:44;;;;;;;4.40;4.00;;;22.10;99.90;;;22.03;51.00;101548.06;5015960;27;97278;-48
2021/09/20 09:36:14;;;;;;;4.03;3.73;;;22.10;99.90;;;22.01;50.99;101560.75;5020143;27;97109;-49
2021/09/20 09:39:01;;;;;;;4.47;4.10;;;22.10;99.90;;;22.02;51.31;101554.41;5023444;27;99624;-48
2021/09/20 09:41:44;;;;;;;4.67;4.10;;;22.10;99.90;;;22.09;50.74;101561.09;5016492;27;102318;-46
2021/09/20 09:44:13;;;;;;;4.83;4.43;;;22.10;99.90;;;22.07;50.80;101560.34;5014234;27;97639;-48
2021/09/20 09:46:48;;;;;;;4.50;4.10;;;22.10;99.90;;;22.12;50.72;101558.19;5040973;27;98110;-47
2021/09/20 09:49:18;;;;;;;4.23;3.93;;;22.20;99.90;;;22.05;51.05;101562.28;5014825;27;101603;-46
2021/09/20 09:52:20;;;;;;;4.83;4.43;;;22.10;99.90;;;22.05;50.98;101567.66;5023564;27;98474;-46
2021/09/20 09:54:46;;;;;;;4.83;4.43;;;22.10;99.90;;;22.10;50.64;101564.63;5014220;27;100952;-47
2021/09/20 09:57:13;;;;;;;4.67;4.27;;;22.10;99.10;;;22.14;50.72;101569.72;5018271;27;98754;-45
2021/09/20 09:59:41;;;;;;;4.73;4.33;;;22.10;99.90;;;22.14;50.48;101572.41;5019860;27;97555;-47
2021/09/20 10:02:38;;;;;;;4.27;3.97;;;22.20;99.90;;;22.13;50.49;101573.38;5018646;27;98213;-45
2021/09/20 10:05:15;;;;;;;4.83;4.43;;;22.20;99.90;;;22.09;50.82;101563.78;5007864;27;98510;-45
2021/09/20 10:07:48;;;;;;;4.17;3.87;;;22.20;99.90;;;22.04;50.89;101571.28;5025213;27;98876;-44
2021/09/20 10:10:19;;;;;;;4.27;3.87;;;22.10;99.90;;;22.00;50.85;101575.16;5016703;27;100144;-47